createdAt,value
2018-09-03T00:00:23.715Z,6.65
2018-09-03T00:05:16.906Z,6.72
2018-09-03T00:10:09.986Z,7.00
2018-09-03T00:15:03.288Z,7.00
2018-09-03T00:19:56.812Z,7.25
2018-09-03T00:24:49.846Z,6.62
2018-09-03T00:29:42.987Z,6.30
2018-09-03T00:34:41.793Z,7.08
2018-09-03T00:39:40.399Z,6.50
2018-09-03T00:44:38.898Z,6.12
2018-09-03T00:49:32.105Z,7.15
2018-09-03T00:54:25.512Z,6.90
2018-09-03T00:59:18.958Z,6.90
2018-09-03T01:04:11.971Z,6.20
2018-09-03T01:09:07.280Z,6.60
2018-09-03T01:14:00.372Z,6.50
2018-09-03T01:18:54.945Z,6.30
2018-09-03T01:23:47.971Z,6.60
2018-09-03T01:28:40.970Z,6.28
2018-09-03T01:33:34.168Z,6.10
2018-09-03T01:38:27.295Z,6.15
2018-09-03T01:43:20.272Z,6.22
2018-09-03T01:48:16.859Z,6.05
2018-09-03T01:53:10.040Z,6.03
2018-09-03T01:58:03.167Z,6.60
2018-09-03T02:02:56.587Z,6.65
2018-09-03T02:07:49.753Z,6.28
2018-09-03T02:12:42.885Z,7.15
2018-09-03T02:17:36.002Z,6.58
2018-09-03T02:22:29.080Z,6.78
2018-09-03T02:27:22.238Z,6.72
2018-09-03T02:32:15.222Z,6.45
2018-09-03T02:37:08.482Z,6.60
2018-09-03T02:42:01.619Z,7.10
2018-09-03T02:46:54.825Z,7.12
2018-09-03T02:51:47.818Z,7.35
2018-09-03T02:56:40.905Z,6.90
2018-09-03T03:01:34.001Z,6.28
2018-09-03T03:06:27.116Z,6.92
2018-09-03T03:11:20.202Z,7.15
2018-09-03T03:16:13.436Z,6.92
2018-09-03T03:21:06.825Z,6.22
2018-09-03T03:25:59.965Z,8.15
2018-09-03T03:30:53.050Z,7.92
2018-09-03T03:35:46.253Z,7.30
2018-09-03T03:40:39.562Z,7.95
2018-09-03T03:45:32.616Z,7.85
2018-09-03T03:50:25.820Z,6.87
2018-09-03T03:55:19.019Z,7.90
2018-09-03T04:00:12.170Z,7.83
2018-09-03T04:05:05.796Z,8.10
2018-09-03T04:09:58.840Z,7.65
2018-09-03T04:14:52.006Z,7.55
2018-09-03T04:19:49.550Z,7.28
2018-09-03T04:24:42.817Z,7.28
2018-09-03T04:29:35.824Z,7.58
2018-09-03T04:34:28.970Z,7.17
2018-09-03T04:39:22.191Z,7.37
2018-09-03T04:44:15.429Z,7.15
2018-09-03T04:49:08.659Z,7.70
2018-09-03T04:54:01.932Z,7.35
2018-09-03T04:58:57.432Z,7.58
2018-09-03T05:03:54.812Z,7.85
2018-09-03T05:08:53.685Z,7.17
2018-09-03T05:13:50.296Z,7.22
2018-09-03T05:18:47.625Z,7.72
2018-09-03T05:23:42.335Z,6.85
2018-09-03T05:28:35.455Z,7.35
2018-09-03T05:33:29.106Z,7.10
2018-09-03T05:38:23.855Z,7.35
2018-09-03T05:43:17.773Z,7.17
2018-09-03T05:48:15.757Z,6.90
2018-09-03T05:53:08.955Z,6.92
2018-09-03T05:58:02.043Z,6.70
2018-09-03T06:02:55.118Z,7.42
2018-09-03T06:07:48.530Z,7.00
2018-09-03T06:12:42.046Z,8.10
2018-09-03T06:17:36.144Z,7.85
2018-09-03T06:22:29.466Z,8.33
2018-09-03T06:27:24.056Z,7.95
2018-09-03T06:32:18.692Z,9.30
2018-09-03T06:37:11.739Z,9.20
2018-09-03T06:42:04.969Z,7.53
2018-09-03T06:46:58.051Z,8.40
2018-09-03T06:51:51.618Z,7.42
2018-09-03T06:56:44.712Z,7.75
2018-09-03T07:01:38.449Z,7.95
2018-09-03T07:06:32.775Z,7.70
2018-09-03T07:11:25.965Z,7.37
2018-09-03T07:16:19.006Z,7.80
2018-09-03T07:21:12.917Z,11.93
2018-09-03T07:26:06.661Z,7.87
2018-09-03T07:31:01.100Z,7.10
2018-09-03T07:35:54.115Z,6.40
2018-09-03T07:40:47.267Z,7.90
2018-09-03T07:45:40.367Z,7.40
2018-09-03T07:50:34.467Z,7.10
2018-09-03T07:55:27.795Z,7.25
2018-09-03T08:00:20.765Z,7.30
2018-09-03T08:05:14.116Z,6.62
2018-09-03T08:10:08.869Z,6.42
2018-09-03T08:15:02.184Z,7.35
2018-09-03T08:19:55.395Z,6.78
2018-09-03T08:24:48.719Z,7.45
2018-09-03T08:29:43.410Z,8.28
2018-09-03T08:34:36.515Z,7.92
2018-09-03T08:39:36.153Z,7.72
2018-09-03T08:44:29.682Z,7.00
2018-09-03T08:49:22.739Z,7.22
2018-09-03T08:54:16.020Z,7.47
2018-09-03T08:59:09.032Z,6.50
2018-09-03T09:04:02.193Z,6.72
2018-09-03T09:08:55.923Z,6.55
2018-09-03T09:13:49.011Z,7.00
2018-09-03T09:18:42.520Z,6.80
2018-09-03T09:23:35.815Z,7.22
2018-09-03T09:28:31.736Z,6.60
2018-09-03T09:33:26.860Z,6.35
2018-09-03T09:38:20.023Z,6.75
2018-09-03T09:43:13.048Z,6.37
2018-09-03T09:48:06.203Z,6.70
2018-09-03T09:52:59.574Z,5.75
2018-09-03T09:57:52.792Z,6.67
2018-09-03T10:02:45.941Z,6.35
2018-09-03T10:07:39.192Z,5.65
2018-09-03T10:12:32.929Z,5.53
2018-09-03T10:17:26.228Z,6.03
2018-09-03T10:22:19.334Z,6.30
2018-09-03T10:27:13.053Z,5.90
2018-09-03T10:32:06.506Z,5.72
2018-09-03T10:36:59.725Z,5.72
2018-09-03T10:41:52.931Z,5.58
2018-09-03T10:46:47.446Z,6.22
2018-09-03T10:51:40.677Z,6.20
2018-09-03T10:56:33.685Z,6.17
2018-09-03T11:01:27.349Z,5.55
2018-09-03T11:06:20.416Z,6.80
2018-09-03T11:11:13.709Z,6.03
2018-09-03T11:16:07.052Z,5.92
2018-09-03T11:21:00.157Z,5.97
2018-09-03T11:25:54.202Z,5.40
2018-09-03T11:30:47.582Z,5.80
2018-09-03T11:35:42.237Z,6.22
2018-09-03T11:40:35.500Z,6.28
2018-09-03T11:45:28.785Z,6.17
2018-09-03T11:50:21.844Z,6.25
2018-09-03T11:55:15.230Z,6.20
2018-09-03T12:00:11.806Z,6.28
2018-09-03T12:05:05.241Z,6.55
2018-09-03T12:09:58.351Z,6.50
2018-09-03T12:14:58.323Z,7.05
2018-09-03T12:19:51.878Z,6.20
2018-09-03T12:24:44.926Z,6.28
2018-09-03T12:29:38.101Z,6.78
2018-09-03T12:34:31.119Z,5.90
2018-09-03T12:39:24.239Z,6.10
2018-09-03T12:44:17.491Z,6.50
2018-09-03T12:49:12.130Z,7.10
2018-09-03T12:54:05.372Z,6.12
2018-09-03T12:58:58.484Z,6.10
2018-09-03T13:03:56.695Z,6.35
2018-09-03T13:08:49.877Z,6.25
2018-09-03T13:13:50.666Z,6.37
2018-09-03T13:18:44.887Z,5.87
2018-09-03T13:23:38.109Z,6.60
2018-09-03T13:28:31.325Z,6.47
2018-09-03T13:33:24.469Z,7.12
2018-09-03T13:38:17.640Z,6.80
2018-09-03T13:43:10.840Z,6.47
2018-09-03T13:48:04.108Z,6.70
2018-09-03T13:52:57.227Z,6.78
2018-09-03T13:57:50.432Z,6.28
2018-09-03T14:02:43.738Z,6.87
2018-09-03T14:07:36.772Z,6.90
2018-09-03T14:12:29.990Z,6.60
2018-09-03T14:17:23.302Z,6.50
2018-09-03T14:22:16.517Z,6.60
2018-09-03T14:27:09.880Z,6.75
2018-09-03T14:32:03.182Z,6.72
2018-09-03T14:36:56.571Z,7.75
2018-09-03T14:41:49.906Z,6.78
2018-09-03T14:46:44.545Z,7.58
2018-09-03T14:51:37.633Z,7.22
2018-09-03T14:56:30.843Z,7.05
2018-09-03T15:01:24.123Z,6.87
2018-09-03T15:06:17.426Z,7.33
2018-09-03T15:11:10.692Z,7.37
2018-09-03T15:16:03.951Z,7.25
2018-09-03T15:20:57.208Z,7.05
2018-09-03T15:25:50.386Z,6.83
2018-09-03T15:30:43.993Z,6.50
2018-09-03T15:35:37.297Z,7.10
2018-09-03T15:40:30.611Z,7.47
2018-09-03T15:45:23.784Z,6.72
2018-09-03T15:50:17.056Z,6.62
2018-09-03T15:55:10.447Z,6.75
2018-09-03T16:00:03.956Z,6.80
2018-09-03T16:04:57.153Z,7.05
2018-09-03T16:09:51.288Z,6.80
2018-09-03T16:14:48.705Z,7.12
2018-09-03T16:19:43.207Z,7.85
2018-09-03T16:24:36.997Z,7.97
2018-09-03T16:29:30.972Z,9.50
2018-09-03T16:34:24.315Z,7.53
2018-09-03T16:39:19.252Z,7.45
2018-09-03T16:44:12.740Z,7.37
2018-09-03T16:49:06.372Z,7.87
2018-09-03T16:54:02.405Z,7.70
2018-09-03T16:58:55.842Z,7.45
2018-09-03T17:03:49.319Z,7.22
2018-09-03T17:08:46.091Z,6.62
2018-09-03T17:13:42.049Z,8.15
2018-09-03T17:18:36.590Z,7.40
2018-09-03T17:23:31.241Z,6.85
2018-09-03T17:28:25.296Z,9.95
2018-09-03T17:33:21.527Z,6.85
2018-09-03T17:38:16.329Z,7.50
2018-09-03T17:43:11.403Z,7.72
2018-09-03T17:48:07.790Z,8.20
2018-09-03T17:53:08.965Z,7.80
2018-09-03T17:58:03.114Z,7.90
2018-09-03T18:03:01.259Z,8.03
2018-09-03T18:07:57.408Z,8.38
2018-09-03T18:12:52.869Z,8.63
2018-09-03T18:17:52.577Z,8.70
2018-09-03T18:22:45.600Z,8.88
2018-09-03T18:27:43.632Z,9.73
2018-09-03T18:32:38.620Z,9.23
2018-09-03T18:37:37.454Z,9.88
2018-09-03T18:42:31.245Z,10.70
2018-09-03T18:47:26.516Z,10.88
2018-09-03T18:52:21.414Z,10.55
2018-09-03T18:57:15.660Z,11.38
2018-09-03T19:02:09.682Z,12.30
2018-09-03T19:07:04.727Z,11.88
2018-09-03T19:11:59.422Z,12.37
2018-09-03T19:16:58.322Z,12.53
2018-09-03T19:21:53.307Z,11.45
2018-09-03T19:26:48.167Z,11.25
2018-09-03T19:31:48.407Z,11.70
2018-09-03T19:36:44.247Z,11.08
2018-09-03T19:41:38.232Z,10.82
2018-09-03T19:46:36.113Z,9.40
2018-09-03T19:51:31.304Z,10.30
2018-09-03T19:56:29.436Z,9.85
2018-09-03T20:01:23.918Z,9.55
2018-09-03T20:06:24.845Z,9.50
2018-09-03T20:11:20.244Z,10.00
2018-09-03T20:16:14.707Z,10.38
2018-09-03T20:21:12.610Z,9.93
2018-09-03T20:26:09.156Z,9.55
2018-09-03T20:31:07.629Z,10.53
2018-09-03T20:36:05.947Z,10.35
2018-09-03T20:41:00.623Z,10.60
2018-09-03T20:45:56.906Z,10.03
2018-09-03T20:50:51.063Z,9.40
2018-09-03T20:55:49.953Z,10.55
2018-09-03T21:00:51.433Z,9.83
2018-09-03T21:05:46.048Z,9.50
2018-09-03T21:10:40.367Z,10.45
2018-09-03T21:15:36.479Z,9.43
2018-09-03T21:20:31.680Z,8.88
2018-09-03T21:25:30.132Z,9.13
2018-09-03T21:30:24.149Z,9.70
2018-09-03T21:35:19.894Z,9.15
2018-09-03T21:40:14.677Z,9.50
2018-09-03T21:45:09.323Z,9.80
2018-09-03T21:50:04.479Z,10.23
2018-09-03T21:55:02.697Z,8.33
2018-09-03T21:59:56.775Z,9.13
2018-09-03T22:04:54.812Z,7.75
2018-09-03T22:09:48.688Z,8.83
2018-09-03T22:14:41.934Z,8.60
2018-09-03T22:19:36.860Z,9.65
2018-09-03T22:24:32.847Z,8.90
2018-09-03T22:29:27.770Z,8.43
2018-09-03T22:34:26.363Z,8.63
2018-09-03T22:39:23.588Z,8.00
2018-09-03T22:44:19.933Z,7.83
2018-09-03T22:49:16.606Z,8.28
2018-09-03T22:54:11.493Z,7.87
2018-09-03T22:59:06.153Z,8.35
2018-09-03T23:04:08.276Z,7.33
2018-09-03T23:09:04.642Z,7.70
2018-09-03T23:13:59.904Z,8.13
2018-09-03T23:18:57.260Z,7.72
2018-09-03T23:23:56.090Z,8.05
2018-09-03T23:28:52.390Z,8.10
2018-09-03T23:33:46.195Z,7.53
2018-09-03T23:38:40.279Z,8.28
2018-09-03T23:43:35.634Z,7.30
2018-09-03T23:48:29.510Z,7.50
2018-09-03T23:53:23.079Z,7.12
2018-09-03T23:58:16.241Z,7.58
